map of TAO home
TAO - Airport
Location
City:  Qingdao, Shandong, China
Name:Liuting International Airport
ICAO:ZSQD
IATA:TAO

Details
Type:Airport (Aerodrome, Airfield)
Use:Public/Civil, International (customs port of entry)
Latitude:3616'N (36.265)
Longitude:12022'E (120.373)
Elevation:33 ft (10 m)
Variation:7.15W (WMM2015v2 magnetic declination)
-0.09 annual change
Runways:1
Longest:11155 × 148 ft (3400 × 45 m), paved

Time
Time Zone:UTC+8
Local Time:

Weather
METAR:ZSQD 041400Z 18005MPS 6000 NSC 05/01 Q1022 NOSIG

Related Locations
Nearby:
Farthest:SAZA: 12389 mi / 19938 km
Azul [Azul Airport], B, AR

Find:

   beyond  
but within

Other Information
Maps:
NOTAMs:
Links:
Sources:

  
  • flag of China
  

Airport Diagram

Airport diagram for TAO

Airport diagram PDF

Sectional Chart

Flight Planning
at skyvector.com

Satellite Image

Google Maps Satellite view

 

Copyright © 2004-2019 Karl L. Swartz. All rights reserved.
The Great Circle Mapper name and logo are trademarks of the Great Circle Mapper.
All other trademarks mentioned herein belong to their respective owners.
Please see credits for attibutions and further copyright information.

  Follow gcmap on Facebook Follow gcmap on Twitter GCmap on LinkedIn

hCard Microformat

Geo Microformat